sensor_id;sensor_type;location;lat;lon;timestamp;pressure;altitude;pressure_sealevel;temperature;humidity
48846;BME280;34665;51.886;5.436;2022-09-09T00:00:32;100630.91;;;23.00;100.00
48846;BME280;34665;51.886;5.436;2022-09-09T00:03:12;100631.53;;;22.86;100.00
48846;BME280;34665;51.886;5.436;2022-09-09T00:06:06;100625.06;;;22.77;100.00
48846;BME280;34665;51.886;5.436;2022-09-09T00:09:19;100626.38;;;22.34;100.00
48846;BME280;34665;51.886;5.436;2022-09-09T00:12:09;100623.63;;;21.17;100.00
48846;BME280;34665;51.886;5.436;2022-09-09T00:17:11;100616.00;;;21.50;100.00
48846;BME280;34665;51.886;5.436;2022-09-09T00:19:45;100614.59;;;21.78;100.00
48846;BME280;34665;51.886;5.436;2022-09-09T00:27:49;100605.09;;;20.72;100.00
48846;BME280;34665;51.886;5.436;2022-09-09T00:32:37;100604.31;;;20.87;100.00
48846;BME280;34665;51.886;5.436;2022-09-09T00:35:16;100606.22;;;21.49;100.00
48846;BME280;34665;51.886;5.436;2022-09-09T00:37:44;100598.34;;;20.80;100.00
48846;BME280;34665;51.886;5.436;2022-09-09T00:40:34;100597.53;;;21.21;100.00
48846;BME280;34665;51.886;5.436;2022-09-09T00:43:36;100595.91;;;21.25;100.00
48846;BME280;34665;51.886;5.436;2022-09-09T00:54:31;100589.88;;;21.70;100.00
48846;BME280;34665;51.886;5.436;2022-09-09T00:57:38;100593.47;;;21.34;100.00
48846;BME280;34665;51.886;5.436;2022-09-09T01:00:20;100598.44;;;22.98;100.00
48846;BME280;34665;51.886;5.436;2022-09-09T01:06:01;100604.81;;;22.88;100.00
48846;BME280;34665;51.886;5.436;2022-09-09T01:11:26;100590.47;;;22.22;100.00
48846;BME280;34665;51.886;5.436;2022-09-09T01:14:29;100583.25;;;20.20;100.00
48846;BME280;34665;51.886;5.436;2022-09-09T01:16:55;100582.69;;;19.65;100.00
48846;BME280;34665;51.886;5.436;2022-09-09T01:19:45;100575.56;;;19.97;100.00
48846;BME280;34665;51.886;5.436;2022-09-09T01:22:42;100575.94;;;20.21;100.00
48846;BME280;34665;51.886;5.436;2022-09-09T01:28:05;100580.09;;;22.24;100.00
48846;BME280;34665;51.886;5.436;2022-09-09T01:30:37;100579.03;;;22.20;100.00
48846;BME280;34665;51.886;5.436;2022-09-09T01:33:03;100581.91;;;18.94;100.00
48846;BME280;34665;51.886;5.436;2022-09-09T01:38:21;100584.88;;;18.92;100.00
48846;BME280;34665;51.886;5.436;2022-09-09T01:40:50;100577.50;;;18.88;100.00
48846;BME280;34665;51.886;5.436;2022-09-09T01:43:20;100584.88;;;18.65;100.00
48846;BME280;34665;51.886;5.436;2022-09-09T01:45:48;100576.84;;;18.70;100.00
48846;BME280;34665;51.886;5.436;2022-09-09T01:48:16;100579.63;;;18.81;100.00
48846;BME280;34665;51.886;5.436;2022-09-09T01:50:49;100580.13;;;18.50;100.00
48846;BME280;34665;51.886;5.436;2022-09-09T01:53:17;100576.25;;;18.68;100.00
48846;BME280;34665;51.886;5.436;2022-09-09T02:04:40;100566.91;;;18.81;100.00
48846;BME280;34665;51.886;5.436;2022-09-09T02:07:37;100561.66;;;19.02;100.00
48846;BME280;34665;51.886;5.436;2022-09-09T02:12:43;100563.56;;;18.19;100.00
48846;BME280;34665;51.886;5.436;2022-09-09T02:15:19;100562.59;;;18.30;100.00
48846;BME280;34665;51.886;5.436;2022-09-09T02:17:49;100560.91;;;18.79;100.00
48846;BME280;34665;51.886;5.436;2022-09-09T02:20:18;100564.16;;;17.59;100.00
48846;BME280;34665;51.886;5.436;2022-09-09T02:22:50;100558.69;;;18.43;100.00
48846;BME280;34665;51.886;5.436;2022-09-09T02:25:20;100561.34;;;18.38;100.00
48846;BME280;34665;51.886;5.436;2022-09-09T02:27:50;100554.03;;;21.11;100.00
48846;BME280;34665;51.886;5.436;2022-09-09T02:30:16;100555.31;;;18.09;100.00
48846;BME280;34665;51.886;5.436;2022-09-09T02:32:50;100552.72;;;17.97;100.00
48846;BME280;34665;51.886;5.436;2022-09-09T02:35:21;100550.34;;;18.00;100.00
48846;BME280;34665;51.886;5.436;2022-09-09T02:37:52;100552.69;;;18.14;100.00
48846;BME280;34665;51.886;5.436;2022-09-09T02:40:19;100548.06;;;21.14;100.00
48846;BME280;34665;51.886;5.436;2022-09-09T02:42:54;100548.34;;;18.13;100.00
48846;BME280;34665;51.886;5.436;2022-09-09T02:45:23;100544.13;;;20.11;100.00
48846;BME280;34665;51.886;5.436;2022-09-09T02:50:26;100544.69;;;20.29;100.00
48846;BME280;34665;51.886;5.436;2022-09-09T02:55:39;100553.31;;;18.21;100.00
48846;BME280;34665;51.886;5.436;2022-09-09T02:58:12;100554.63;;;18.18;100.00
48846;BME280;34665;51.886;5.436;2022-09-09T03:00:47;100553.13;;;18.28;100.00
48846;BME280;34665;51.886;5.436;2022-09-09T03:03:15;100554.25;;;17.87;100.00
48846;BME280;34665;51.886;5.436;2022-09-09T03:05:42;100555.09;;;18.65;100.00
48846;BME280;34665;51.886;5.436;2022-09-09T03:08:08;100550.41;;;17.83;100.00
48846;BME280;34665;51.886;5.436;2022-09-09T03:10:35;100558.34;;;18.34;100.00
48846;BME280;34665;51.886;5.436;2022-09-09T03:13:03;100561.63;;;17.75;100.00
48846;BME280;34665;51.886;5.436;2022-09-09T03:15:34;100559.41;;;18.11;100.00
48846;BME280;34665;51.886;5.436;2022-09-09T03:18:01;100554.34;;;18.15;100.00
48846;BME280;34665;51.886;5.436;2022-09-09T03:20:29;100555.09;;;18.10;100.00
48846;BME280;34665;51.886;5.436;2022-09-09T03:22:56;100559.03;;;18.02;100.00
48846;BME280;34665;51.886;5.436;2022-09-09T03:25:22;100560.78;;;18.63;100.00
48846;BME280;34665;51.886;5.436;2022-09-09T03:27:50;100564.94;;;18.22;100.00
48846;BME280;34665;51.886;5.436;2022-09-09T03:30:18;100565.78;;;18.22;100.00
48846;BME280;34665;51.886;5.436;2022-09-09T03:32:44;100561.47;;;18.48;100.00
48846;BME280;34665;51.886;5.436;2022-09-09T03:35:10;100560.69;;;18.26;100.00
48846;BME280;34665;51.886;5.436;2022-09-09T03:37:36;100553.28;;;17.76;100.00
48846;BME280;34665;51.886;5.436;2022-09-09T03:40:02;100562.94;;;17.50;100.00
48846;BME280;34665;51.886;5.436;2022-09-09T03:42:28;100563.25;;;17.93;100.00
48846;BME280;34665;51.886;5.436;2022-09-09T03:44:54;100564.16;;;18.48;100.00
48846;BME280;34665;51.886;5.436;2022-09-09T03:47:24;100569.50;;;17.54;100.00
48846;BME280;34665;51.886;5.436;2022-09-09T03:49:55;100558.53;;;18.28;100.00
48846;BME280;34665;51.886;5.436;2022-09-09T03:52:21;100558.53;;;17.44;100.00
48846;BME280;34665;51.886;5.436;2022-09-09T03:54:51;100553.63;;;17.41;100.00
48846;BME280;34665;51.886;5.436;2022-09-09T03:57:17;100549.28;;;17.40;100.00
48846;BME280;34665;51.886;5.436;2022-09-09T03:59:43;100549.63;;;17.43;100.00
48846;BME280;34665;51.886;5.436;2022-09-09T04:02:10;100540.84;;;17.36;100.00
48846;BME280;34665;51.886;5.436;2022-09-09T04:04:35;100538.25;;;17.63;100.00
48846;BME280;34665;51.886;5.436;2022-09-09T04:07:02;100545.63;;;17.90;100.00
48846;BME280;34665;51.886;5.436;2022-09-09T04:09:27;100537.13;;;21.34;100.00
48846;BME280;34665;51.886;5.436;2022-09-09T04:11:53;100541.50;;;20.73;100.00
48846;BME280;34665;51.886;5.436;2022-09-09T04:14:19;100540.88;;;18.47;100.00
48846;BME280;34665;51.886;5.436;2022-09-09T04:16:45;100541.78;;;18.31;100.00
48846;BME280;34665;51.886;5.436;2022-09-09T04:19:12;100532.22;;;21.42;100.00
48846;BME280;34665;51.886;5.436;2022-09-09T04:21:41;100528.19;;;19.18;100.00
48846;BME280;34665;51.886;5.436;2022-09-09T04:24:08;100533.91;;;17.85;100.00
48846;BME280;34665;51.886;5.436;2022-09-09T04:26:35;100533.41;;;17.66;100.00
48846;BME280;34665;51.886;5.436;2022-09-09T04:29:03;100532.72;;;17.98;100.00
48846;BME280;34665;51.886;5.436;2022-09-09T04:31:29;100537.38;;;17.80;100.00
48846;BME280;34665;51.886;5.436;2022-09-09T04:33:55;100538.09;;;22.35;100.00
48846;BME280;34665;51.886;5.436;2022-09-09T04:36:22;100540.38;;;23.32;100.00
48846;BME280;34665;51.886;5.436;2022-09-09T04:38:50;100528.88;;;18.71;100.00
48846;BME280;34665;51.886;5.436;2022-09-09T04:41:16;100521.19;;;21.94;100.00
48846;BME280;34665;51.886;5.436;2022-09-09T04:43:44;100521.13;;;22.04;100.00
48846;BME280;34665;51.886;5.436;2022-09-09T04:46:11;100523.06;;;18.57;100.00
48846;BME280;34665;51.886;5.436;2022-09-09T04:48:37;100524.25;;;17.89;100.00
48846;BME280;34665;51.886;5.436;2022-09-09T04:51:08;100528.34;;;18.41;100.00
48846;BME280;34665;51.886;5.436;2022-09-09T04:53:35;100520.81;;;19.09;100.00
48846;BME280;34665;51.886;5.436;2022-09-09T04:58:36;100527.03;;;18.76;100.00
48846;BME280;34665;51.886;5.436;2022-09-09T05:01:14;100527.25;;;17.92;100.00
48846;BME280;34665;51.886;5.436;2022-09-09T05:03:43;100519.53;;;17.79;100.00
48846;BME280;34665;51.886;5.436;2022-09-09T05:06:17;100520.94;;;17.25;100.00
48846;BME280;34665;51.886;5.436;2022-09-09T05:08:45;100526.09;;;18.33;100.00
48846;BME280;34665;51.886;5.436;2022-09-09T05:11:15;100513.34;;;17.22;100.00
48846;BME280;34665;51.886;5.436;2022-09-09T05:13:41;100514.59;;;17.54;100.00
48846;BME280;34665;51.886;5.436;2022-09-09T05:16:07;100518.34;;;17.30;100.00
48846;BME280;34665;51.886;5.436;2022-09-09T05:18:35;100521.28;;;16.95;100.00
48846;BME280;34665;51.886;5.436;2022-09-09T05:21:00;100523.66;;;17.42;100.00
48846;BME280;34665;51.886;5.436;2022-09-09T05:23:26;100514.78;;;17.08;100.00
48846;BME280;34665;51.886;5.436;2022-09-09T05:25:56;100522.22;;;17.79;100.00
48846;BME280;34665;51.886;5.436;2022-09-09T05:28:24;100519.09;;;17.48;100.00
48846;BME280;34665;51.886;5.436;2022-09-09T05:30:58;100513.47;;;17.72;100.00
48846;BME280;34665;51.886;5.436;2022-09-09T05:33:27;100508.16;;;17.77;100.00
48846;BME280;34665;51.886;5.436;2022-09-09T05:36:00;100502.16;;;17.53;100.00
48846;BME280;34665;51.886;5.436;2022-09-09T05:38:27;100504.28;;;18.77;100.00
48846;BME280;34665;51.886;5.436;2022-09-09T05:40:53;100501.06;;;17.98;100.00
48846;BME280;34665;51.886;5.436;2022-09-09T05:43:19;100503.88;;;17.81;100.00
48846;BME280;34665;51.886;5.436;2022-09-09T05:45:47;100502.34;;;17.68;100.00
48846;BME280;34665;51.886;5.436;2022-09-09T05:48:14;100497.19;;;17.89;100.00
48846;BME280;34665;51.886;5.436;2022-09-09T05:50:52;100506.03;;;18.29;100.00
48846;BME280;34665;51.886;5.436;2022-09-09T05:53:18;100514.53;;;18.70;100.00
48846;BME280;34665;51.886;5.436;2022-09-09T05:55:44;100514.59;;;18.20;100.00
48846;BME280;34665;51.886;5.436;2022-09-09T05:58:11;100513.38;;;18.06;100.00
48846;BME280;34665;51.886;5.436;2022-09-09T06:00:37;100516.19;;;21.40;100.00
48846;BME280;34665;51.886;5.436;2022-09-09T06:03:03;100519.38;;;18.36;100.00
48846;BME280;34665;51.886;5.436;2022-09-09T06:05:29;100525.22;;;20.68;100.00
48846;BME280;34665;51.886;5.436;2022-09-09T06:07:56;100531.94;;;22.14;100.00
48846;BME280;34665;51.886;5.436;2022-09-09T06:10:23;100527.47;;;22.39;100.00
48846;BME280;34665;51.886;5.436;2022-09-09T06:12:48;100522.50;;;22.06;100.00
48846;BME280;34665;51.886;5.436;2022-09-09T06:15:14;100528.50;;;21.98;100.00
48846;BME280;34665;51.886;5.436;2022-09-09T06:17:39;100529.09;;;22.35;100.00
48846;BME280;34665;51.886;5.436;2022-09-09T06:20:07;100525.53;;;22.80;100.00
48846;BME280;34665;51.886;5.436;2022-09-09T06:22:34;100525.44;;;22.60;100.00
48846;BME280;34665;51.886;5.436;2022-09-09T06:25:00;100525.78;;;22.03;100.00
48846;BME280;34665;51.886;5.436;2022-09-09T06:27:27;100529.53;;;22.13;100.00
48846;BME280;34665;51.886;5.436;2022-09-09T06:29:53;100521.28;;;22.68;100.00
48846;BME280;34665;51.886;5.436;2022-09-09T06:32:18;100525.28;;;22.41;100.00
48846;BME280;34665;51.886;5.436;2022-09-09T06:34:44;100515.50;;;23.04;100.00
48846;BME280;34665;51.886;5.436;2022-09-09T06:37:10;100521.59;;;22.96;100.00
48846;BME280;34665;51.886;5.436;2022-09-09T06:39:41;100531.03;;;22.74;100.00
48846;BME280;34665;51.886;5.436;2022-09-09T06:42:07;100525.94;;;22.97;100.00
48846;BME280;34665;51.886;5.436;2022-09-09T06:44:53;100519.69;;;22.97;100.00
48846;BME280;34665;51.886;5.436;2022-09-09T06:47:44;100529.03;;;22.85;100.00
48846;BME280;34665;51.886;5.436;2022-09-09T06:50:09;100512.72;;;22.80;100.00
48846;BME280;34665;51.886;5.436;2022-09-09T06:52:36;100519.00;;;19.25;100.00
48846;BME280;34665;51.886;5.436;2022-09-09T06:55:03;100537.00;;;18.98;100.00
48846;BME280;34665;51.886;5.436;2022-09-09T06:57:29;100512.88;;;19.02;100.00
48846;BME280;34665;51.886;5.436;2022-09-09T06:59:56;100504.69;;;19.34;100.00
48846;BME280;34665;51.886;5.436;2022-09-09T07:02:22;100520.28;;;19.60;100.00
48846;BME280;34665;51.886;5.436;2022-09-09T07:04:48;100541.84;;;19.34;100.00
48846;BME280;34665;51.886;5.436;2022-09-09T07:07:16;100511.19;;;19.33;100.00
48846;BME280;34665;51.886;5.436;2022-09-09T07:09:43;100504.06;;;19.70;100.00
48846;BME280;34665;51.886;5.436;2022-09-09T07:12:12;100513.44;;;19.47;100.00
48846;BME280;34665;51.886;5.436;2022-09-09T07:14:43;100514.25;;;20.06;100.00
48846;BME280;34665;51.886;5.436;2022-09-09T07:17:09;100511.91;;;20.46;100.00
48846;BME280;34665;51.886;5.436;2022-09-09T07:19:37;100514.91;;;20.55;100.00
48846;BME280;34665;51.886;5.436;2022-09-09T07:22:04;100513.78;;;20.51;100.00
48846;BME280;34665;51.886;5.436;2022-09-09T07:24:33;100528.13;;;19.51;100.00
48846;BME280;34665;51.886;5.436;2022-09-09T07:26:59;100514.25;;;19.47;100.00
48846;BME280;34665;51.886;5.436;2022-09-09T07:29:25;100503.53;;;19.73;100.00
48846;BME280;34665;51.886;5.436;2022-09-09T07:31:52;100542.78;;;19.55;100.00
48846;BME280;34665;51.886;5.436;2022-09-09T07:34:23;100516.50;;;19.61;100.00
48846;BME280;34665;51.886;5.436;2022-09-09T07:36:48;100506.34;;;19.94;100.00
48846;BME280;34665;51.886;5.436;2022-09-09T07:39:15;100529.16;;;19.98;100.00
48846;BME280;34665;51.886;5.436;2022-09-09T07:41:48;100519.50;;;19.65;100.00
48846;BME280;34665;51.886;5.436;2022-09-09T07:44:20;100517.25;;;20.10;100.00
48846;BME280;34665;51.886;5.436;2022-09-09T07:46:50;100520.75;;;20.05;100.00
48846;BME280;34665;51.886;5.436;2022-09-09T07:49:20;100527.81;;;20.01;100.00
48846;BME280;34665;51.886;5.436;2022-09-09T07:51:47;100540.66;;;19.62;100.00
48846;BME280;34665;51.886;5.436;2022-09-09T07:54:17;100528.47;;;20.65;100.00
48846;BME280;34665;51.886;5.436;2022-09-09T07:56:49;100523.50;;;20.15;100.00
48846;BME280;34665;51.886;5.436;2022-09-09T07:59:15;100514.53;;;20.10;100.00
48846;BME280;34665;51.886;5.436;2022-09-09T08:01:45;100529.00;;;20.36;100.00
48846;BME280;34665;51.886;5.436;2022-09-09T08:04:18;100534.44;;;20.41;100.00
48846;BME280;34665;51.886;5.436;2022-09-09T08:06:53;100523.81;;;20.40;100.00
48846;BME280;34665;51.886;5.436;2022-09-09T08:09:21;100536.16;;;19.89;100.00
48846;BME280;34665;51.886;5.436;2022-09-09T08:11:48;100529.28;;;20.50;100.00
48846;BME280;34665;51.886;5.436;2022-09-09T08:14:13;100534.47;;;20.77;100.00
48846;BME280;34665;51.886;5.436;2022-09-09T08:16:43;100526.84;;;20.64;100.00
48846;BME280;34665;51.886;5.436;2022-09-09T08:19:14;100523.13;;;19.86;100.00
48846;BME280;34665;51.886;5.436;2022-09-09T08:21:41;100534.06;;;19.96;100.00
48846;BME280;34665;51.886;5.436;2022-09-09T08:24:09;100555.72;;;21.98;100.00
48846;BME280;34665;51.886;5.436;2022-09-09T08:26:47;100540.94;;;23.24;100.00
48846;BME280;34665;51.886;5.436;2022-09-09T08:29:16;100535.50;;;20.51;100.00
48846;BME280;34665;51.886;5.436;2022-09-09T08:31:48;100534.66;;;20.24;100.00
48846;BME280;34665;51.886;5.436;2022-09-09T08:34:15;100526.88;;;20.85;100.00
48846;BME280;34665;51.886;5.436;2022-09-09T08:36:44;100535.84;;;24.15;100.00
48846;BME280;34665;51.886;5.436;2022-09-09T08:39:13;100551.28;;;24.25;100.00
48846;BME280;34665;51.886;5.436;2022-09-09T08:44:50;100546.09;;;24.95;100.00
48846;BME280;34665;51.886;5.436;2022-09-09T08:47:45;100542.22;;;22.28;100.00
48846;BME280;34665;51.886;5.436;2022-09-09T08:50:22;100547.25;;;21.18;100.00
48846;BME280;34665;51.886;5.436;2022-09-09T08:53:31;100547.53;;;21.01;100.00
48846;BME280;34665;51.886;5.436;2022-09-09T08:58:27;100550.19;;;20.65;100.00
48846;BME280;34665;51.886;5.436;2022-09-09T09:09:21;100555.63;;;21.38;100.00
48846;BME280;34665;51.886;5.436;2022-09-09T09:11:58;100547.16;;;21.55;100.00
48846;BME280;34665;51.886;5.436;2022-09-09T09:14:30;100557.28;;;20.71;100.00
48846;BME280;34665;51.886;5.436;2022-09-09T09:17:10;100558.34;;;20.55;100.00
48846;BME280;34665;51.886;5.436;2022-09-09T09:19:39;100545.31;;;20.67;100.00
48846;BME280;34665;51.886;5.436;2022-09-09T09:24:59;100554.59;;;20.97;100.00
48846;BME280;34665;51.886;5.436;2022-09-09T09:27:33;100548.56;;;20.74;100.00
48846;BME280;34665;51.886;5.436;2022-09-09T09:30:19;100573.00;;;21.73;100.00
48846;BME280;34665;51.886;5.436;2022-09-09T09:33:02;100561.97;;;22.94;100.00
48846;BME280;34665;51.886;5.436;2022-09-09T09:35:31;100562.56;;;23.94;100.00
48846;BME280;34665;51.886;5.436;2022-09-09T09:37:57;100570.16;;;24.40;100.00
48846;BME280;34665;51.886;5.436;2022-09-09T09:40:27;100563.78;;;21.48;100.00
48846;BME280;34665;51.886;5.436;2022-09-09T09:43:03;100561.09;;;21.12;100.00
48846;BME280;34665;51.886;5.436;2022-09-09T09:45:43;100559.47;;;20.90;100.00
48846;BME280;34665;51.886;5.436;2022-09-09T09:48:14;100560.97;;;21.84;100.00
48846;BME280;34665;51.886;5.436;2022-09-09T09:51:00;100548.53;;;21.42;100.00
48846;BME280;34665;51.886;5.436;2022-09-09T09:53:31;100573.91;;;20.96;100.00
48846;BME280;34665;51.886;5.436;2022-09-09T09:56:01;100570.44;;;23.22;100.00
48846;BME280;34665;51.886;5.436;2022-09-09T09:58:30;100554.94;;;22.83;100.00
48846;BME280;34665;51.886;5.436;2022-09-09T10:00:57;100575.22;;;23.06;100.00
48846;BME280;34665;51.886;5.436;2022-09-09T10:03:31;100567.22;;;22.85;100.00
48846;BME280;34665;51.886;5.436;2022-09-09T10:05:59;100563.06;;;22.58;100.00
48846;BME280;34665;51.886;5.436;2022-09-09T10:08:26;100559.81;;;22.91;100.00
48846;BME280;34665;51.886;5.436;2022-09-09T10:14:00;100577.84;;;21.81;100.00
48846;BME280;34665;51.886;5.436;2022-09-09T10:17:18;100582.75;;;21.79;100.00
48846;BME280;34665;51.886;5.436;2022-09-09T10:19:33;100585.00;;;21.46;100.00
48846;BME280;34665;51.886;5.436;2022-09-09T10:22:09;100575.94;;;21.76;100.00
48846;BME280;34665;51.886;5.436;2022-09-09T10:24:54;100583.16;;;22.12;100.00
48846;BME280;34665;51.886;5.436;2022-09-09T10:27:47;100580.97;;;21.17;100.00
48846;BME280;34665;51.886;5.436;2022-09-09T10:30:21;100585.47;;;21.79;100.00
48846;BME280;34665;51.886;5.436;2022-09-09T10:33:02;100590.97;;;21.43;100.00
48846;BME280;34665;51.886;5.436;2022-09-09T10:35:34;100580.16;;;21.01;100.00
48846;BME280;34665;51.886;5.436;2022-09-09T10:38:16;100578.38;;;21.94;100.00
48846;BME280;34665;51.886;5.436;2022-09-09T10:52:50;100582.94;;;23.28;100.00
48846;BME280;34665;51.886;5.436;2022-09-09T10:55:25;100565.66;;;22.29;100.00
48846;BME280;34665;51.886;5.436;2022-09-09T10:57:54;100590.09;;;21.84;100.00
48846;BME280;34665;51.886;5.436;2022-09-09T11:00:25;100569.78;;;22.26;100.00
48846;BME280;34665;51.886;5.436;2022-09-09T11:03:03;100563.47;;;22.31;100.00
48846;BME280;34665;51.886;5.436;2022-09-09T11:05:42;100562.78;;;22.55;100.00
48846;BME280;34665;51.886;5.436;2022-09-09T11:08:24;100563.53;;;23.00;100.00
48846;BME280;34665;51.886;5.436;2022-09-09T11:11:11;100569.78;;;23.36;100.00
48846;BME280;34665;51.886;5.436;2022-09-09T11:19:26;100568.00;;;23.20;100.00
48846;BME280;34665;51.886;5.436;2022-09-09T11:21:57;100568.88;;;23.45;100.00
48846;BME280;34665;51.886;5.436;2022-09-09T11:28:18;100554.91;;;22.53;100.00
48846;BME280;34665;51.886;5.436;2022-09-09T11:30:19;100553.53;;;22.00;100.00
48846;BME280;34665;51.886;5.436;2022-09-09T11:38:47;100570.16;;;24.79;100.00
48846;BME280;34665;51.886;5.436;2022-09-09T11:41:19;100570.81;;;26.06;100.00
48846;BME280;34665;51.886;5.436;2022-09-09T11:43:51;100573.22;;;28.52;100.00
48846;BME280;34665;51.886;5.436;2022-09-09T11:46:19;100566.91;;;27.58;100.00
48846;BME280;34665;51.886;5.436;2022-09-09T11:48:58;100573.28;;;27.85;100.00
48846;BME280;34665;51.886;5.436;2022-09-09T11:54:00;100561.69;;;22.96;100.00
48846;BME280;34665;51.886;5.436;2022-09-09T11:56:41;100572.31;;;22.57;100.00
48846;BME280;34665;51.886;5.436;2022-09-09T12:02:11;100554.75;;;23.62;100.00
48846;BME280;34665;51.886;5.436;2022-09-09T12:04:53;100556.59;;;23.43;100.00
48846;BME280;34665;51.886;5.436;2022-09-09T12:07:33;100565.28;;;23.20;100.00
48846;BME280;34665;51.886;5.436;2022-09-09T12:10:20;100557.94;;;23.70;100.00
48846;BME280;34665;51.886;5.436;2022-09-09T12:12:48;100561.19;;;23.96;100.00
48846;BME280;34665;51.886;5.436;2022-09-09T12:15:19;100547.38;;;23.87;100.00
48846;BME280;34665;51.886;5.436;2022-09-09T12:17:49;100562.66;;;24.13;100.00
48846;BME280;34665;51.886;5.436;2022-09-09T12:20:33;100550.03;;;23.14;100.00
48846;BME280;34665;51.886;5.436;2022-09-09T12:29:10;100559.91;;;23.10;100.00
48846;BME280;34665;51.886;5.436;2022-09-09T12:32:06;100556.94;;;23.36;100.00
48846;BME280;34665;51.886;5.436;2022-09-09T12:34:52;100583.66;;;23.04;100.00
48846;BME280;34665;51.886;5.436;2022-09-09T12:37:41;100556.53;;;22.54;100.00
48846;BME280;34665;51.886;5.436;2022-09-09T12:40:28;100557.50;;;22.24;100.00
48846;BME280;34665;51.886;5.436;2022-09-09T12:42:54;100542.28;;;22.23;100.00
48846;BME280;34665;51.886;5.436;2022-09-09T12:45:25;100550.31;;;22.48;100.00
48846;BME280;34665;51.886;5.436;2022-09-09T12:48:00;100549.78;;;22.81;100.00
48846;BME280;34665;51.886;5.436;2022-09-09T12:50:34;100553.50;;;22.61;100.00
48846;BME280;34665;51.886;5.436;2022-09-09T12:56:02;100537.84;;;22.77;100.00
48846;BME280;34665;51.886;5.436;2022-09-09T12:58:29;100569.25;;;22.69;100.00
48846;BME280;34665;51.886;5.436;2022-09-09T13:00:59;100558.41;;;22.59;100.00
48846;BME280;34665;51.886;5.436;2022-09-09T13:03:26;100552.16;;;22.58;100.00
48846;BME280;34665;51.886;5.436;2022-09-09T13:05:56;100556.44;;;23.34;100.00
48846;BME280;34665;51.886;5.436;2022-09-09T13:08:24;100554.19;;;23.66;100.00
48846;BME280;34665;51.886;5.436;2022-09-09T13:11:04;100556.66;;;23.38;100.00
48846;BME280;34665;51.886;5.436;2022-09-09T13:13:36;100546.41;;;23.24;100.00
48846;BME280;34665;51.886;5.436;2022-09-09T13:16:05;100537.56;;;23.86;100.00
48846;BME280;34665;51.886;5.436;2022-09-09T13:18:40;100548.84;;;23.99;100.00
48846;BME280;34665;51.886;5.436;2022-09-09T13:21:07;100552.72;;;23.49;100.00
48846;BME280;34665;51.886;5.436;2022-09-09T13:23:35;100553.63;;;23.39;100.00
48846;BME280;34665;51.886;5.436;2022-09-09T13:26:24;100547.16;;;23.59;100.00
48846;BME280;34665;51.886;5.436;2022-09-09T13:28:49;100531.13;;;24.92;100.00
48846;BME280;34665;51.886;5.436;2022-09-09T13:31:33;100567.34;;;27.20;100.00
48846;BME280;34665;51.886;5.436;2022-09-09T13:34:13;100532.22;;;24.91;100.00
48846;BME280;34665;51.886;5.436;2022-09-09T13:36:40;100538.16;;;25.12;100.00
48846;BME280;34665;51.886;5.436;2022-09-09T13:39:15;100538.56;;;23.47;100.00
48846;BME280;34665;51.886;5.436;2022-09-09T13:41:43;100525.34;;;23.00;100.00
48846;BME280;34665;51.886;5.436;2022-09-09T13:44:29;100545.69;;;23.13;100.00
48846;BME280;34665;51.886;5.436;2022-09-09T13:49:39;100536.44;;;23.87;100.00
48846;BME280;34665;51.886;5.436;2022-09-09T13:52:10;100528.97;;;22.96;100.00
48846;BME280;34665;51.886;5.436;2022-09-09T13:54:37;100529.84;;;23.45;100.00
48846;BME280;34665;51.886;5.436;2022-09-09T13:57:03;100520.41;;;23.81;100.00
48846;BME280;34665;51.886;5.436;2022-09-09T13:59:30;100525.91;;;23.32;100.00
48846;BME280;34665;51.886;5.436;2022-09-09T14:01:57;100521.78;;;23.59;100.00
48846;BME280;34665;51.886;5.436;2022-09-09T14:04:23;100521.09;;;23.91;100.00
48846;BME280;34665;51.886;5.436;2022-09-09T14:06:50;100526.38;;;24.45;100.00
48846;BME280;34665;51.886;5.436;2022-09-09T14:09:18;100520.97;;;24.59;100.00
48846;BME280;34665;51.886;5.436;2022-09-09T14:11:44;100520.19;;;24.73;100.00
48846;BME280;34665;51.886;5.436;2022-09-09T14:14:11;100522.63;;;24.74;100.00
48846;BME280;34665;51.886;5.436;2022-09-09T14:16:37;100521.72;;;25.12;100.00
48846;BME280;34665;51.886;5.436;2022-09-09T14:19:03;100522.03;;;25.25;100.00
48846;BME280;34665;51.886;5.436;2022-09-09T14:21:29;100528.66;;;24.38;100.00
48846;BME280;34665;51.886;5.436;2022-09-09T14:23:54;100523.97;;;25.10;100.00
48846;BME280;34665;51.886;5.436;2022-09-09T14:26:21;100524.38;;;24.32;100.00
48846;BME280;34665;51.886;5.436;2022-09-09T14:28:47;100525.75;;;23.91;100.00
48846;BME280;34665;51.886;5.436;2022-09-09T14:31:13;100533.63;;;23.73;100.00
48846;BME280;34665;51.886;5.436;2022-09-09T14:33:40;100535.69;;;23.82;100.00
48846;BME280;34665;51.886;5.436;2022-09-09T14:36:06;100612.00;;;26.66;100.00
48846;BME280;34665;51.886;5.436;2022-09-09T14:38:33;100610.34;;;28.05;100.00
48846;BME280;34665;51.886;5.436;2022-09-09T14:40:59;100517.78;;;37.29;100.00
48846;BME280;34665;51.886;5.436;2022-09-09T14:43:25;100454.34;;;35.57;100.00
48846;BME280;34665;51.886;5.436;2022-09-09T14:45:52;100448.09;;;38.22;76.47
48846;BME280;34665;51.886;5.436;2022-09-09T14:48:17;100451.41;;;36.07;84.41
48846;BME280;34665;51.886;5.436;2022-09-09T14:50:43;100435.94;;;34.25;95.39
48846;BME280;34665;51.886;5.436;2022-09-09T14:53:08;100444.56;;;34.20;96.81
48846;BME280;34665;51.886;5.436;2022-09-09T14:55:36;100433.13;;;34.44;94.76